Time;durP1;ratioP1;P1;durP2;ratioP2;P2;SDS_P1;SDS_P2;PMS_P1;PMS_P2;Temp;Humidity;BMP_temperature;BMP_pressure;BME280_temperature;BME280_humidity;BME280_pressure;Samples;Min_cycle;Max_cycle;Signal;HPM_P1;HPM_P2
2023/10/21 00:01:38;;;;;;;37.90;23.73;;;;;;;9.16;100.00;98089.44;7389673;19;20431;-73
2023/10/21 00:04:05;;;;;;;34.28;23.83;;;;;;;9.20;100.00;98089.78;7393171;19;20368;-73
2023/10/21 00:06:32;;;;;;;38.53;22.55;;;;;;;9.24;100.00;98088.28;7388461;19;20335;-73
2023/10/21 00:08:59;;;;;;;52.15;23.52;;;;;;;9.26;100.00;98088.06;7388398;19;20342;-73
2023/10/21 00:11:26;;;;;;;44.88;22.70;;;;;;;9.28;100.00;98084.16;7393435;19;20354;-73
2023/10/21 00:13:53;;;;;;;64.60;23.30;;;;;;;9.29;100.00;98072.53;7390496;19;21314;-73
2023/10/21 00:16:20;;;;;;;86.70;24.08;;;;;;;9.32;100.00;98092.44;7388867;19;20389;-73
2023/10/21 00:18:47;;;;;;;67.53;23.17;;;;;;;9.35;100.00;98091.97;7388583;19;20443;-73
2023/10/21 00:21:13;;;;;;;80.72;24.58;;;;;;;9.35;100.00;98099.91;7393500;19;20929;-73
2023/10/21 00:23:40;;;;;;;89.63;24.50;;;;;;;9.35;100.00;98099.91;7393090;19;20364;-73
2023/10/21 00:26:10;;;;;;;85.18;24.05;;;;;;;9.37;100.00;98105.75;7390634;19;20386;-73
2023/10/21 00:28:38;;;;;;;83.57;23.77;;;;;;;9.40;100.00;98102.66;7388456;19;20426;-73
2023/10/21 00:31:04;;;;;;;75.15;23.20;;;;;;;9.43;100.00;98115.44;7393908;19;20379;-73
2023/10/21 00:33:31;;;;;;;86.70;24.17;;;;;;;9.42;100.00;98113.84;7388192;19;20356;-73
2023/10/21 00:35:58;;;;;;;95.82;23.48;;;;;;;9.45;100.00;98116.00;7391049;19;20374;-73
2023/10/21 00:38:25;;;;;;;89.20;23.27;;;;;;;9.46;100.00;98114.19;7392601;19;20394;-73
2023/10/21 00:40:53;;;;;;;81.95;21.90;;;;;;;9.47;100.00;98110.50;7390509;19;20344;-73
2023/10/21 00:43:39;;;;;;;82.20;22.77;;;;;;;9.46;100.00;98114.19;7390643;19;20443;-73
2023/10/21 00:46:19;;;;;;;79.97;22.47;;;;;;;9.48;100.00;98112.09;7392454;19;20377;-73
2023/10/21 00:48:49;;;;;;;81.53;22.60;;;;;;;9.51;100.00;98127.50;7390456;19;20429;-73
2023/10/21 00:51:16;;;;;;;96.03;22.08;;;;;;;9.53;100.00;98130.75;7391926;19;20398;-73
2023/10/21 00:53:43;;;;;;;72.50;20.95;;;;;;;9.54;100.00;98142.91;7391917;19;20357;-73
2023/10/21 00:56:10;;;;;;;73.50;20.50;;;;;;;9.54;100.00;98141.09;7391147;19;20364;-73
2023/10/21 00:58:38;;;;;;;81.78;21.42;;;;;;;9.58;100.00;98144.06;7389953;19;20373;-73
2023/10/21 01:01:06;;;;;;;91.88;21.50;;;;;;;9.58;100.00;98142.25;7391776;19;20372;-73
2023/10/21 01:03:35;;;;;;;82.57;20.15;;;;;;;9.58;100.00;98144.91;7391293;19;20375;-73
2023/10/21 01:06:02;;;;;;;84.28;20.63;;;;;;;9.56;100.00;98162.03;7392657;19;20390;-73
2023/10/21 01:08:30;;;;;;;81.68;19.90;;;;;;;9.56;100.00;98162.03;7388243;19;20383;-73
2023/10/21 01:10:58;;;;;;;63.47;19.15;;;;;;;9.53;100.00;98158.00;7390590;19;20364;-73
2023/10/21 01:13:26;;;;;;;66.47;19.15;;;;;;;9.54;100.00;98153.50;7389858;19;20423;-73
2023/10/21 01:15:53;;;;;;;68.13;19.10;;;;;;;9.52;100.00;98142.34;7392538;19;20403;-73
2023/10/21 01:18:20;;;;;;;69.63;20.17;;;;;;;9.50;100.00;98155.00;7389881;19;20364;-73
2023/10/21 01:20:54;;;;;;;74.30;20.35;;;;;;;9.48;100.00;98162.38;7395466;19;20393;-73
2023/10/21 01:23:21;;;;;;;76.93;20.10;;;;;;;9.47;100.00;98160.75;7396824;19;20397;-73
2023/10/21 01:25:47;;;;;;;64.03;19.73;;;;;;;9.48;100.00;98165.00;7397920;19;20371;-73
2023/10/21 01:28:14;;;;;;;71.03;19.88;;;;;;;9.46;100.00;98162.63;7397555;19;20360;-73
2023/10/21 01:30:41;;;;;;;58.10;19.35;;;;;;;9.48;100.00;98159.72;7394676;19;20364;-73
2023/10/21 01:33:08;;;;;;;70.53;19.67;;;;;;;9.48;100.00;98165.00;7397598;19;20364;-73
2023/10/21 01:35:35;;;;;;;49.38;19.40;;;;;;;9.48;100.00;98170.31;7394314;19;20426;-73
2023/10/21 01:38:03;;;;;;;66.22;19.52;;;;;;;9.49;100.00;98178.03;7397255;19;20385;-73
2023/10/21 01:40:30;;;;;;;69.90;18.92;;;;;;;9.49;100.00;98177.22;7396227;19;20702;-73
2023/10/21 01:42:57;;;;;;;83.57;20.02;;;;;;;9.47;100.00;98169.50;7399032;19;20713;-73
2023/10/21 01:45:24;;;;;;;70.70;18.88;;;;;;;9.47;100.00;98171.34;7393506;19;20420;-73
2023/10/21 01:47:51;;;;;;;61.75;18.58;;;;;;;9.48;100.00;98165.00;7394470;19;20348;-73
2023/10/21 01:50:18;;;;;;;61.53;18.83;;;;;;;9.46;100.00;98156.53;7395456;19;21825;-73
2023/10/21 01:52:45;;;;;;;43.13;18.15;;;;;;;9.45;100.00;98153.06;7395611;19;20734;-73
2023/10/21 01:55:12;;;;;;;40.75;18.98;;;;;;;9.46;100.00;98153.88;7395253;19;20489;-73
2023/10/21 01:57:40;;;;;;;48.35;18.67;;;;;;;9.43;100.00;98164.91;7396688;19;20364;-73
2023/10/21 02:00:10;;;;;;;53.13;19.33;;;;;;;9.46;100.00;98172.41;7394985;19;20897;-73
2023/10/21 02:02:40;;;;;;;67.00;20.02;;;;;;;9.45;100.00;98176.06;7394504;19;20427;-73
2023/10/21 02:05:08;;;;;;;77.00;20.65;;;;;;;9.47;100.00;98179.28;7395358;19;20366;-73
2023/10/21 02:07:36;;;;;;;66.13;20.23;;;;;;;9.50;100.00;98184.09;7396723;19;20340;-73
2023/10/21 02:10:05;;;;;;;64.32;20.25;;;;;;;9.52;100.00;98182.88;7396836;19;20398;-73
2023/10/21 02:12:32;;;;;;;62.47;20.30;;;;;;;9.55;100.00;98184.25;7395606;19;20399;-73
2023/10/21 02:14:59;;;;;;;68.00;19.77;;;;;;;9.54;100.00;98178.16;7397732;19;20391;-73
2023/10/21 02:17:26;;;;;;;61.90;20.17;;;;;;;9.54;100.00;98177.31;7392530;19;20367;-73
2023/10/21 02:19:57;;;;;;;55.83;19.67;;;;;;;9.57;100.00;98180.31;7396234;19;20744;-73
2023/10/21 02:22:24;;;;;;;57.72;19.98;;;;;;;9.58;100.00;98183.78;7397913;19;20423;-73
2023/10/21 02:24:53;;;;;;;36.83;19.92;;;;;;;9.62;100.00;98187.56;7395627;19;20361;-74
2023/10/21 02:27:20;;;;;;;42.40;20.63;;;;;;;9.65;100.00;98192.41;7399345;19;20366;-73
2023/10/21 02:29:48;;;;;;;34.53;19.42;;;;;;;9.67;100.00;98200.94;7395413;19;20411;-73
2023/10/21 02:32:15;;;;;;;32.50;19.85;;;;;;;9.74;100.00;98200.81;7394982;19;20401;-73
2023/10/21 02:34:42;;;;;;;35.78;20.30;;;;;;;9.74;100.00;98198.97;7396665;19;20390;-73
2023/10/21 02:37:09;;;;;;;27.37;19.53;;;;;;;9.78;100.00;98202.78;7393714;19;20427;-73
2023/10/21 02:39:37;;;;;;;28.10;20.00;;;;;;;9.80;100.00;98200.69;7395682;19;20363;-73
2023/10/21 02:42:04;;;;;;;34.73;20.73;;;;;;;9.84;100.00;98202.88;7395221;19;20539;-73
2023/10/21 02:44:31;;;;;;;29.88;19.20;;;;;;;9.84;100.00;98201.06;7394312;19;20356;-73
2023/10/21 02:46:59;;;;;;;32.22;19.75;;;;;;;9.85;100.00;98201.84;7393316;19;20693;-73
2023/10/21 02:49:25;;;;;;;32.25;19.55;;;;;;;9.86;100.00;98198.16;7395121;19;20376;-73
2023/10/21 02:51:52;;;;;;;33.28;19.42;;;;;;;9.86;100.00;98203.44;7396578;19;20390;-73
2023/10/21 02:54:19;;;;;;;33.08;19.60;;;;;;;9.91;100.00;98208.88;7395096;19;20379;-73
2023/10/21 02:56:46;;;;;;;32.97;19.27;;;;;;;9.91;100.00;98200.94;7392673;19;20344;-73
2023/10/21 02:59:13;;;;;;;33.80;19.15;;;;;;;9.93;100.00;98193.56;7394101;19;20376;-73
2023/10/21 03:01:40;;;;;;;37.42;19.75;;;;;;;9.91;100.00;98193.78;7392132;19;20351;-73
2023/10/21 03:04:07;;;;;;;29.77;19.48;;;;;;;9.93;100.00;98204.94;7395068;19;20447;-73
2023/10/21 03:06:36;;;;;;;28.73;19.80;;;;;;;9.94;100.00;98208.41;7393023;19;20374;-73
2023/10/21 03:09:06;;;;;;;29.77;20.33;;;;;;;9.96;100.00;98206.31;7396613;19;20336;-73
2023/10/21 03:11:34;;;;;;;28.13;19.77;;;;;;;9.98;100.00;98217.50;7394980;19;20377;-73
2023/10/21 03:14:01;;;;;;;24.88;20.23;;;;;;;10.00;100.00;98215.41;7392416;19;20351;-73
2023/10/21 03:16:28;;;;;;;24.30;20.42;;;;;;;10.00;100.00;98218.88;7394741;19;20345;-73
2023/10/21 03:18:54;;;;;;;24.08;20.45;;;;;;;10.02;100.00;98223.94;7391351;19;20364;-73
2023/10/21 03:21:21;;;;;;;26.27;21.50;;;;;;;10.01;100.00;98219.69;7395358;19;20375;-73
2023/10/21 03:23:48;;;;;;;24.65;21.23;;;;;;;10.02;100.00;98218.63;7394854;19;20352;-73
2023/10/21 03:26:15;;;;;;;23.90;21.23;;;;;;;10.02;100.00;98216.00;7394711;19;20875;-73
2023/10/21 03:28:43;;;;;;;24.10;21.55;;;;;;;10.04;100.00;98213.91;7392486;19;20349;-73
2023/10/21 03:31:11;;;;;;;24.27;21.00;;;;;;;10.06;100.00;98214.50;7395259;19;20397;-73
2023/10/21 03:33:38;;;;;;;23.65;21.13;;;;;;;10.07;100.00;98215.28;7391572;19;20873;-73
2023/10/21 03:36:05;;;;;;;22.58;20.17;;;;;;;10.09;100.00;98221.97;7395368;19;20894;-74
2023/10/21 03:38:33;;;;;;;22.63;20.23;;;;;;;10.10;100.00;98213.00;7393795;19;20413;-74
2023/10/21 03:41:05;;;;;;;21.77;19.58;;;;;;;10.12;100.00;98213.56;7394414;19;20340;-74
2023/10/21 03:43:32;;;;;;;21.85;19.63;;;;;;;10.14;100.00;98216.00;7394574;19;20456;-74
2023/10/21 03:46:04;;;;;;;21.50;19.40;;;;;;;10.15;100.00;98218.38;7394181;19;20782;-74
2023/10/21 03:48:32;;;;;;;21.60;19.33;;;;;;;10.16;100.00;98214.72;7390824;19;20474;-74
2023/10/21 03:51:09;;;;;;;21.55;19.35;;;;;;;10.18;100.00;98212.63;7393139;19;20370;-74
2023/10/21 03:53:37;;;;;;;20.65;18.65;;;;;;;10.21;100.00;98216.66;7392034;19;20907;-74
2023/10/21 03:56:04;;;;;;;20.50;18.40;;;;;;;10.23;100.00;98203.19;7393901;19;20392;-74
2023/10/21 03:58:31;;;;;;;20.33;18.33;;;;;;;10.26;100.00;98197.41;7392734;19;20369;-74
2023/10/21 04:00:58;;;;;;;19.95;17.85;;;;;;;10.28;100.00;98201.44;7389929;19;20397;-74
2023/10/21 04:03:26;;;;;;;19.60;17.70;;;;;;;10.31;100.00;98216.91;7392214;19;20361;-74
2023/10/21 04:05:55;;;;;;;20.52;18.45;;;;;;;10.33;100.00;98209.53;7394750;19;20401;-74
2023/10/21 04:08:23;;;;;;;20.02;18.05;;;;;;;10.36;100.00;98213.53;7391485;19;20341;-74
2023/10/21 04:10:50;;;;;;;19.92;17.92;;;;;;;10.38;100.00;98216.78;7392097;19;20332;-74
2023/10/21 04:13:17;;;;;;;19.27;17.40;;;;;;;10.40;100.00;98210.19;7392548;19;20350;-74
2023/10/21 04:15:44;;;;;;;18.90;17.10;;;;;;;10.41;100.00;98210.97;7394398;19;20693;-74
2023/10/21 04:18:11;;;;;;;18.58;16.75;;;;;;;10.44;100.00;98210.53;7392451;19;20375;-74
2023/10/21 04:20:39;;;;;;;18.58;16.77;;;;;;;10.47;100.00;98215.34;7393439;19;20461;-74
2023/10/21 04:23:06;;;;;;;18.42;16.63;;;;;;;10.52;100.00;98227.91;7391546;19;20720;-74
2023/10/21 04:25:32;;;;;;;18.55;16.73;;;;;;;10.56;100.00;98224.56;7393279;19;20829;-74
2023/10/21 04:28:00;;;;;;;19.15;17.35;;;;;;;10.60;100.00;98217.75;7389347;19;20367;-74
2023/10/21 04:30:27;;;;;;;18.15;16.35;;;;;;;10.66;100.00;98212.53;7389681;19;20360;-74
2023/10/21 04:32:54;;;;;;;17.63;15.88;;;;;;;10.69;100.00;98214.69;7392788;19;20400;-74
2023/10/21 04:35:20;;;;;;;17.38;15.73;;;;;;;10.69;100.00;98206.75;7393503;19;20374;-74
2023/10/21 04:37:48;;;;;;;17.48;15.77;;;;;;;10.73;100.00;98210.53;7390135;19;20369;-73
2023/10/21 04:40:15;;;;;;;18.03;16.23;;;;;;;10.74;100.00;98220.13;7394882;19;20360;-73
2023/10/21 04:42:43;;;;;;;17.17;15.57;;;;;;;10.75;100.00;98219.06;7393935;19;21188;-73
2023/10/21 04:45:10;;;;;;;17.88;16.15;;;;;;;10.78;100.00;98215.94;7395598;19;20363;-73
2023/10/21 04:47:37;;;;;;;18.08;16.27;;;;;;;10.79;100.00;98220.19;7391117;19;20369;-73
2023/10/21 04:50:05;;;;;;;18.75;16.75;;;;;;;10.80;100.00;98219.97;7393264;19;20880;-73
2023/10/21 04:52:32;;;;;;;18.02;16.27;;;;;;;10.81;100.00;98215.47;7393129;19;20371;-73
2023/10/21 04:55:00;;;;;;;18.00;16.20;;;;;;;10.81;100.00;98218.13;7400484;19;20389;-73
2023/10/21 04:57:27;;;;;;;17.42;15.73;;;;;;;10.81;100.00;98215.47;7396863;19;20368;-73
2023/10/21 04:59:54;;;;;;;18.17;16.38;;;;;;;10.81;100.00;98215.47;7400149;19;20897;-73
2023/10/21 05:02:21;;;;;;;18.13;16.33;;;;;;;10.83;100.00;98216.03;7398563;19;20706;-73
2023/10/21 05:04:49;;;;;;;18.00;16.20;;;;;;;10.84;100.00;98219.47;7399739;19;20340;-73
2023/10/21 05:07:17;;;;;;;18.05;16.35;;;;;;;10.84;100.00;98225.63;7399178;19;20385;-73
2023/10/21 05:09:44;;;;;;;17.80;16.00;;;;;;;10.86;100.00;98234.13;7399575;19;20352;-73
2023/10/21 05:12:11;;;;;;;18.10;16.40;;;;;;;10.88;100.00;98237.34;7398021;19;20340;-73
2023/10/21 05:14:38;;;;;;;17.65;15.85;;;;;;;10.90;100.00;98240.59;7402690;19;20377;-74
2023/10/21 05:17:05;;;;;;;17.90;16.13;;;;;;;10.94;100.00;98247.00;7397993;19;20363;-73
2023/10/21 05:19:33;;;;;;;18.58;16.67;;;;;;;10.99;100.00;98243.66;7399592;19;20704;-74
2023/10/21 05:22:02;;;;;;;17.63;15.98;;;;;;;11.02;100.00;98248.47;7397702;19;20467;-74
2023/10/21 05:24:29;;;;;;;17.95;16.05;;;;;;;11.04;100.00;98251.69;7398665;19;20373;-74
2023/10/21 05:26:56;;;;;;;17.23;15.63;;;;;;;11.04;100.00;98264.16;7400331;19;20371;-74
2023/10/21 05:29:23;;;;;;;17.85;16.15;;;;;;;11.07;100.00;98266.31;7397950;19;20368;-74
2023/10/21 05:31:50;;;;;;;17.40;15.70;;;;;;;11.09;100.00;98265.03;7399267;19;20374;-74
2023/10/21 05:34:20;;;;;;;17.15;15.45;;;;;;;11.10;100.00;98266.66;7399541;19;20674;-74
2023/10/21 05:36:47;;;;;;;16.37;14.80;;;;;;;11.12;100.00;98271.75;7396868;19;20400;-74
2023/10/21 05:39:14;;;;;;;16.42;14.82;;;;;;;11.14;100.00;98282.94;7393358;19;20369;-74
2023/10/21 05:41:41;;;;;;;16.63;15.02;;;;;;;11.13;100.00;98276.78;7398449;19;20364;-74
2023/10/21 05:44:09;;;;;;;16.60;14.90;;;;;;;11.13;100.00;98284.75;7398089;19;20432;-74
2023/10/21 05:46:36;;;;;;;16.27;14.68;;;;;;;11.13;100.00;98284.75;7397807;19;20348;-73
2023/10/21 05:49:03;;;;;;;16.20;14.60;;;;;;;11.11;100.00;98294.78;7395015;19;20740;-73
2023/10/21 05:51:30;;;;;;;16.58;14.98;;;;;;;11.11;100.00;98304.59;7400404;19;20380;-73
2023/10/21 05:53:57;;;;;;;16.55;14.95;;;;;;;11.10;100.00;98298.50;7398932;19;20366;-73
2023/10/21 05:56:25;;;;;;;16.77;15.18;;;;;;;11.11;100.00;98301.94;7397423;19;20336;-73
2023/10/21 05:58:51;;;;;;;16.75;15.05;;;;;;;11.11;100.00;98305.41;7394841;19;20340;-73
2023/10/21 06:01:18;;;;;;;16.92;15.30;;;;;;;11.12;100.00;98317.66;7398178;19;20352;-73
2023/10/21 06:03:45;;;;;;;17.05;15.30;;;;;;;11.14;100.00;98325.38;7397602;19;20382;-73
2023/10/21 06:06:13;;;;;;;16.95;15.20;;;;;;;11.16;100.00;98318.00;7398238;19;20343;-73
2023/10/21 06:08:40;;;;;;;17.77;15.95;;;;;;;11.18;100.00;98326.53;7397693;19;20402;-73
2023/10/21 06:11:08;;;;;;;17.25;15.60;;;;;;;11.19;100.00;98328.13;7398807;19;20359;-73
2023/10/21 06:13:35;;;;;;;17.25;15.45;;;;;;;11.21;100.00;98337.44;7398436;19;20731;-73
2023/10/21 06:16:02;;;;;;;17.60;15.90;;;;;;;11.22;100.00;98336.41;7395003;19;20402;-73
2023/10/21 06:18:30;;;;;;;17.83;16.02;;;;;;;11.25;100.00;98343.09;7395407;19;20694;-73
2023/10/21 06:20:57;;;;;;;17.63;15.82;;;;;;;11.28;100.00;98342.59;7394673;19;20337;-73
2023/10/21 06:23:24;;;;;;;17.77;15.98;;;;;;;11.33;100.00;98353.34;7395964;19;20601;-73
2023/10/21 06:25:51;;;;;;;18.50;16.35;;;;;;;11.36;100.00;98354.69;7393657;19;20893;-73
2023/10/21 06:28:18;;;;;;;17.10;15.40;;;;;;;11.39;100.00;98360.34;7397373;19;20435;-73
2023/10/21 06:30:45;;;;;;;17.58;15.82;;;;;;;11.41;100.00;98363.56;7396363;19;20372;-73
2023/10/21 06:33:11;;;;;;;17.98;16.17;;;;;;;11.44;100.00;98362.28;7397749;19;20386;-74
2023/10/21 06:35:39;;;;;;;17.80;16.00;;;;;;;11.48;100.00;98373.25;7394295;19;20336;-74
2023/10/21 06:38:07;;;;;;;18.52;16.58;;;;;;;11.52;100.00;98374.38;7395590;19;20372;-74
2023/10/21 06:40:35;;;;;;;17.45;15.65;;;;;;;11.55;100.00;98368.59;7395769;19;20647;-74
2023/10/21 06:43:21;;;;;;;17.95;16.15;;;;;;;11.62;100.00;98379.84;7395044;19;20344;-76
2023/10/21 06:45:47;;;;;;;17.43;15.70;;;;;;;11.67;100.00;98379.13;7398006;19;20433;-80
2023/10/21 06:48:14;;;;;;;17.67;15.88;;;;;;;11.74;100.00;98382.47;7393871;19;20365;-80
2023/10/21 06:50:41;;;;;;;16.15;14.55;;;;;;;11.80;100.00;98387.63;7398515;19;20348;-80
2023/10/21 06:53:08;;;;;;;16.60;14.90;;;;;;;11.90;100.00;98399.50;7397428;19;20944;-79
2023/10/21 06:55:44;;;;;;;16.25;14.57;;;;;;;11.96;100.00;98401.19;7397180;19;20353;-79
2023/10/21 06:58:12;;;;;;;15.77;12.75;;;;;;;12.02;100.00;98394.91;7394372;19;20360;-79
2023/10/21 07:00:39;;;;;;;14.57;12.88;;;;;;;12.07;100.00;98408.31;7399006;19;20355;-79
2023/10/21 07:03:07;;;;;;;15.13;12.80;;;;;;;12.13;100.00;98407.31;7392687;19;20360;-80
2023/10/21 07:05:35;;;;;;;14.20;12.57;;;;;;;12.18;100.00;98410.06;7397984;19;21735;-80
2023/10/21 07:08:02;;;;;;;15.82;12.93;;;;;;;12.22;100.00;98415.72;7397123;19;20377;-79
2023/10/21 07:10:30;;;;;;;15.10;12.93;;;;;;;12.28;100.00;98422.69;7396437;19;20911;-79
2023/10/21 07:12:59;;;;;;;14.43;12.90;;;;;;;12.34;100.00;98418.28;7396973;19;20861;-81
2023/10/21 07:15:28;;;;;;;13.55;11.65;;;;;;;12.42;100.00;98416.03;7397461;19;20775;-81
2023/10/21 07:17:56;;;;;;;13.32;11.88;;;;;;;12.48;100.00;98421.44;7396901;19;20353;-81
2023/10/21 07:20:25;;;;;;;38.65;31.65;;;;;;;12.55;100.00;98430.03;7400728;19;20349;-81
2023/10/21 07:22:53;;;;;;;14.85;12.88;;;;;;;12.60;100.00;98436.25;7398983;19;20368;-80
2023/10/21 07:25:20;;;;;;;14.07;12.23;;;;;;;12.68;100.00;98434.22;7395027;19;20378;-80
2023/10/21 07:27:47;;;;;;;18.83;16.27;;;;;;;12.74;100.00;98443.88;7397437;19;20419;-79
2023/10/21 07:30:16;;;;;;;15.45;13.70;;;;;;;12.77;100.00;98448.69;7393049;19;20339;-79
2023/10/21 07:32:44;;;;;;;13.52;11.82;;;;;;;12.82;100.00;98456.78;7394153;19;20354;-79
2023/10/21 07:35:11;;;;;;;14.02;11.40;;;;;;;12.88;100.00;98461.13;7396808;19;20353;-76
2023/10/21 07:37:38;;;;;;;17.58;12.52;;;;;;;13.13;100.00;98463.31;7398159;19;20368;-77
2023/10/21 07:40:06;;;;;;;15.25;11.40;;;;;;;13.35;100.00;98471.34;7396919;19;20360;-77
2023/10/21 07:42:33;;;;;;;14.68;12.05;;;;;;;13.49;100.00;98470.97;7396741;19;20440;-77
2023/10/21 07:45:00;;;;;;;13.23;11.30;;;;;;;13.57;99.42;98478.53;7394293;19;20345;-77
2023/10/21 07:47:27;;;;;;;23.60;21.17;;;;;;;13.65;97.42;98486.09;7392672;19;20899;-76
2023/10/21 07:49:54;;;;;;;12.80;11.10;;;;;;;13.75;98.88;98494.19;7395043;19;20485;-77
2023/10/21 07:52:22;;;;;;;12.45;10.48;;;;;;;13.93;96.97;98494.91;7394606;19;20352;-77
2023/10/21 07:54:49;;;;;;;13.70;10.60;;;;;;;13.91;96.24;98499.69;7394730;19;20382;-81
2023/10/21 07:57:16;;;;;;;14.93;11.00;;;;;;;13.92;96.33;98510.09;7397749;19;20390;-81
2023/10/21 07:59:44;;;;;;;16.20;11.00;;;;;;;13.93;95.92;98518.91;7393675;19;20946;-80
2023/10/21 08:02:11;;;;;;;18.15;11.55;;;;;;;13.92;96.05;98522.59;7393322;19;20394;-79
2023/10/21 08:04:38;;;;;;;16.90;12.95;;;;;;;13.92;95.88;98525.28;7396258;19;20861;-80
2023/10/21 08:07:05;;;;;;;17.23;15.13;;;;;;;13.91;95.93;98537.00;7396247;19;20345;-81
2023/10/21 08:09:32;;;;;;;13.68;11.48;;;;;;;13.90;96.23;98546.03;7395295;19;21011;-81
2023/10/21 08:12:00;;;;;;;12.10;10.35;;;;;;;13.84;95.86;98550.53;7395411;19;20365;-82
2023/10/21 08:14:30;;;;;;;12.68;11.10;;;;;;;13.81;96.18;98549.16;7398639;19;20394;-81
2023/10/21 08:16:58;;;;;;;12.23;10.93;;;;;;;13.82;96.49;98555.28;7394265;19;20440;-82
2023/10/21 08:19:24;;;;;;;14.20;11.18;;;;;;;13.82;96.37;98566.75;7393222;19;20877;-81
2023/10/21 08:21:51;;;;;;;12.77;11.35;;;;;;;13.84;96.55;98577.16;7396439;19;20408;-81
2023/10/21 08:24:18;;;;;;;13.55;12.00;;;;;;;13.81;96.26;98575.81;7397539;19;20857;-80
2023/10/21 08:26:45;;;;;;;13.40;11.32;;;;;;;13.87;96.72;98584.66;7393336;19;20379;-80
2023/10/21 08:29:12;;;;;;;13.27;11.85;;;;;;;13.90;96.11;98586.84;7396075;19;20436;-80
2023/10/21 08:31:39;;;;;;;13.53;11.53;;;;;;;13.93;96.12;98589.00;7395308;19;20395;-81
2023/10/21 08:34:15;;;;;;;12.48;11.18;;;;;;;13.95;96.40;98594.09;7394248;19;20464;-81
2023/10/21 08:36:42;;;;;;;12.60;11.30;;;;;;;14.03;96.72;98599.00;7395164;19;20416;-81
2023/10/21 08:39:09;;;;;;;12.05;10.85;;;;;;;14.05;96.14;98603.00;7395015;19;20448;-80
2023/10/21 08:41:38;;;;;;;18.97;16.93;;;;;;;14.13;96.43;98612.44;7392430;19;20418;-80
2023/10/21 08:44:08;;;;;;;18.50;15.15;;;;;;;14.25;96.75;98620.28;7394914;19;20364;-77
2023/10/21 08:46:35;;;;;;;12.23;10.95;;;;;;;14.36;96.49;98623.88;7391843;19;20361;-79
2023/10/21 08:49:04;;;;;;;14.03;12.63;;;;;;;14.44;96.33;98631.44;7390026;19;20409;-78
2023/10/21 08:51:33;;;;;;;9.35;8.45;;;;;;;14.45;95.59;98639.19;7392452;19;20423;-77
2023/10/21 08:54:04;;;;;;;7.83;7.00;;;;;;;14.40;95.89;98646.31;7390530;19;20402;-77
2023/10/21 08:56:33;;;;;;;8.25;7.43;;;;;;;14.40;96.42;98657.00;7392931;19;20375;-77
2023/10/21 08:59:00;;;;;;;8.10;6.97;;;;;;;14.37;96.99;98652.19;7390878;19;20382;-78
2023/10/21 09:01:27;;;;;;;8.90;6.32;;;;;;;14.38;96.98;98659.09;7391157;19;20360;-78
2023/10/21 09:03:56;;;;;;;6.78;5.70;;;;;;;14.45;97.46;98678.38;7392202;19;20352;-77
2023/10/21 09:06:23;;;;;;;5.60;5.00;;;;;;;14.46;97.61;98677.34;7390418;19;20352;-77
2023/10/21 09:08:50;;;;;;;6.53;5.07;;;;;;;14.55;98.19;98681.19;7388452;19;20391;-77
2023/10/21 09:11:20;;;;;;;5.53;4.93;;;;;;;14.63;98.68;98683.44;7390199;19;20389;-76
2023/10/21 09:13:49;;;;;;;5.25;4.40;;;;;;;14.72;98.80;98685.66;7391439;19;20720;-77
2023/10/21 09:16:34;;;;;;;3.90;2.78;;;;;;;14.90;98.58;98687.97;7389534;19;20363;-76
2023/10/21 09:19:06;;;;;;;4.18;2.80;;;;;;;15.05;98.14;98709.47;7391934;19;20377;-77
2023/10/21 09:21:37;;;;;;;5.93;3.90;;;;;;;15.22;97.72;98696.00;7393976;19;20919;-78
2023/10/21 09:24:10;;;;;;;2.70;1.98;;;;;;;15.34;96.92;98708.38;7392597;19;20379;-77
2023/10/21 09:26:38;;;;;;;2.97;1.98;;;;;;;15.56;95.79;98716.31;7390378;19;20420;-76
2023/10/21 09:29:13;;;;;;;4.40;2.72;;;;;;;15.79;96.83;98715.97;7392829;19;20360;-77
2023/10/21 09:31:54;;;;;;;3.58;1.60;;;;;;;15.94;95.14;98720.63;7390038;19;20352;-76
2023/10/21 09:34:42;;;;;;;2.90;1.80;;;;;;;16.10;94.87;98741.00;7388677;19;20829;-77
2023/10/21 09:37:09;;;;;;;2.95;1.63;;;;;;;16.23;93.90;98750.44;7389433;19;20351;-76
2023/10/21 09:39:36;;;;;;;2.75;1.45;;;;;;;16.39;94.33;98750.53;7392871;19;20352;-76
2023/10/21 09:42:05;;;;;;;2.10;1.08;;;;;;;16.49;92.60;98762.09;7397731;19;20348;-76
2023/10/21 09:44:38;;;;;;;1.97;1.10;;;;;;;16.71;93.25;98769.94;7400581;19;20382;-77
2023/10/21 09:47:06;;;;;;;2.97;1.20;;;;;;;16.81;91.63;98763.03;7397103;19;20348;-77
2023/10/21 09:49:39;;;;;;;3.15;1.20;;;;;;;16.84;91.26;98774.03;7400898;19;20356;-77
2023/10/21 09:52:14;;;;;;;2.30;1.10;;;;;;;16.90;92.06;98780.22;7398954;19;20454;-77
2023/10/21 09:54:52;;;;;;;1.67;0.98;;;;;;;16.99;92.24;98797.38;7398431;19;20345;-77
2023/10/21 09:57:19;;;;;;;1.73;0.80;;;;;;;17.00;90.33;98792.81;7400892;19;20356;-77
2023/10/21 09:59:46;;;;;;;2.85;0.90;;;;;;;17.03;90.34;98787.75;7397338;19;20693;-77
2023/10/21 10:02:14;;;;;;;2.35;0.90;;;;;;;17.06;90.13;98797.91;7396483;19;20363;-77
2023/10/21 10:04:42;;;;;;;1.60;0.70;;;;;;;17.01;89.06;98800.59;7397376;19;20444;-76
2023/10/21 10:07:10;;;;;;;3.30;1.20;;;;;;;17.03;88.88;98809.16;7400440;19;20377;-76
2023/10/21 10:09:57;;;;;;;2.05;0.80;;;;;;;17.15;89.08;98805.44;7396261;19;20340;-76
2023/10/21 10:12:34;;;;;;;2.45;0.80;;;;;;;17.21;88.50;98807.84;7400005;19;20364;-76
2023/10/21 10:15:31;;;;;;;1.60;0.70;;;;;;;17.34;87.95;98809.25;7394766;19;20438;-76
2023/10/21 10:18:03;;;;;;;1.43;0.60;;;;;;;17.56;88.07;98816.25;7396313;19;20723;-76
2023/10/21 10:20:31;;;;;;;1.40;0.60;;;;;;;17.69;87.65;98815.72;7396234;19;20424;-76
2023/10/21 10:22:59;;;;;;;1.30;0.57;;;;;;;17.65;86.42;98817.31;7397465;19;20864;-77
2023/10/21 10:25:46;;;;;;;2.15;0.80;;;;;;;17.64;85.73;98823.78;7396168;19;20339;-76
2023/10/21 10:28:18;;;;;;;1.67;0.60;;;;;;;17.62;86.54;98820.53;7394761;19;20429;-77
2023/10/21 10:30:49;;;;;;;1.08;0.65;;;;;;;17.70;87.56;98828.03;7396352;19;20389;-77
2023/10/21 10:33:24;;;;;;;2.45;0.68;;;;;;;17.67;86.60;98829.38;7395576;19;20376;-77
2023/10/21 10:35:52;;;;;;;2.13;0.70;;;;;;;17.74;86.00;98829.09;7397327;19;20352;-76
2023/10/21 10:38:27;;;;;;;3.20;0.70;;;;;;;17.85;84.93;98821.91;7395138;19;20900;-77
2023/10/21 10:41:14;;;;;;;2.65;0.60;;;;;;;17.99;85.01;98819.50;7394725;19;20364;-76
2023/10/21 10:43:54;;;;;;;1.75;0.70;;;;;;;17.83;84.07;98821.38;7394729;19;20355;-76
2023/10/21 10:46:23;;;;;;;2.28;0.80;;;;;;;17.84;85.36;98818.41;7395052;19;20369;-76
2023/10/21 10:48:51;;;;;;;2.08;0.57;;;;;;;17.72;85.00;98831.25;7395125;19;20370;-76
2023/10/21 10:51:27;;;;;;;1.75;0.60;;;;;;;17.67;85.10;98828.59;7396146;19;20890;-76
2023/10/21 10:53:59;;;;;;;1.13;0.45;;;;;;;17.77;85.54;98833.97;7392268;19;20371;-76
2023/10/21 10:56:40;;;;;;;2.20;0.73;;;;;;;17.89;86.41;98834.53;7396102;19;20403;-76
2023/10/21 10:59:07;;;;;;;2.55;1.10;;;;;;;17.93;85.95;98837.47;7394819;19;20711;-76
2023/10/21 11:01:34;;;;;;;2.00;1.08;;;;;;;17.91;85.62;98844.97;7391816;19;20369;-76
2023/10/21 11:04:02;;;;;;;1.27;0.60;;;;;;;17.78;84.79;98857.00;7395728;19;20361;-76
2023/10/21 11:06:35;;;;;;;2.00;0.80;;;;;;;17.71;84.53;98856.47;7393768;19;20369;-76
2023/10/21 11:09:07;;;;;;;0.80;0.40;;;;;;;17.90;84.67;98862.16;7393608;19;20436;-76
2023/10/21 11:11:47;;;;;;;0.93;0.40;;;;;;;18.09;84.26;98862.41;7396595;19;20357;-76
2023/10/21 11:14:33;;;;;;;1.33;0.40;;;;;;;18.39;82.82;98850.03;7391513;19;20372;-76
2023/10/21 11:17:01;;;;;;;1.77;0.40;;;;;;;18.71;82.09;98847.78;7395118;19;20356;-76
2023/10/21 11:19:29;;;;;;;1.40;0.43;;;;;;;19.03;80.54;98852.00;7393221;19;20348;-76
2023/10/21 11:21:56;;;;;;;1.27;0.35;;;;;;;19.28;78.28;98866.41;7394214;19;20787;-76
2023/10/21 11:24:26;;;;;;;0.68;0.30;;;;;;;19.54;77.11;98875.91;7393441;19;20928;-76